Time;durP1;ratioP1;P1;durP2;ratioP2;P2;SDS_P1;SDS_P2;PMS_P1;PMS_P2;Temp;Humidity;BMP_temperature;BMP_pressure;BME280_temperature;BME280_humidity;BME280_pressure;Samples;Min_cycle;Max_cycle;Signal;HPM_P1;HPM_P2
2022/01/23 00:05:11;;;;;;;10.20;6.73;;;;;;;1.39;100.00;97822.34;10332835;28;20261;-65
2022/01/23 00:10:12;;;;;;;11.97;7.70;;;;;;;1.40;100.00;97821.41;10333965;28;20293;-64
2022/01/23 00:20:31;;;;;;;12.63;8.10;;;;;;;1.44;100.00;97845.38;10333928;28;20197;-65
2022/01/23 00:30:53;;;;;;;13.40;8.77;;;;;;;1.46;100.00;97853.06;10333545;28;20197;-64
2022/01/23 00:35:54;;;;;;;13.90;8.53;;;;;;;1.39;100.00;97852.47;10331768;28;20229;-65
2022/01/23 00:40:54;;;;;;;16.17;9.57;;;;;;;1.42;100.00;97853.19;10332513;28;20540;-64
2022/01/23 00:46:10;;;;;;;15.70;8.97;;;;;;;1.40;100.00;97854.16;10331256;28;20221;-64
2022/01/23 00:51:10;;;;;;;14.00;8.90;;;;;;;1.37;100.00;97834.47;10331597;28;20604;-65
2022/01/23 00:56:11;;;;;;;15.77;9.43;;;;;;;1.39;100.00;97852.47;10332081;28;20229;-65
2022/01/23 01:01:15;;;;;;;13.17;6.90;;;;;;;1.28;100.00;97852.97;10332393;28;20198;-65
2022/01/23 01:06:16;;;;;;;8.40;5.37;;;;;;;1.34;100.00;97857.03;10331652;28;20214;-65
2022/01/23 01:16:53;;;;;;;8.70;5.47;;;;;;;1.32;100.00;97877.75;10331747;28;20241;-65
2022/01/23 01:37:51;;;;;;;8.23;4.43;;;;;;;1.23;100.00;97871.25;10329094;28;20236;-65
2022/01/23 01:42:52;;;;;;;6.20;4.27;;;;;;;1.22;100.00;97869.56;10329501;28;20206;-65
2022/01/23 01:47:56;;;;;;;6.27;4.03;;;;;;;1.21;100.00;97859.31;10329068;28;20182;-65
2022/01/23 01:52:57;;;;;;;6.60;3.90;;;;;;;1.15;100.00;97875.94;10329447;28;20758;-65
2022/01/23 01:58:03;;;;;;;6.77;4.50;;;;;;;1.17;100.00;97891.34;10329231;28;20229;-65
2022/01/23 02:08:38;;;;;;;7.07;4.13;;;;;;;1.24;100.00;97869.50;10328939;28;20193;-65
2022/01/23 02:14:08;;;;;;;3.97;3.00;;;;;;;1.19;100.00;97866.31;10328314;28;20245;-65
2022/01/23 02:25:00;;;;;;;4.77;2.77;;;;;;;1.03;100.00;97863.59;10331769;28;20653;-65
2022/01/23 02:56:39;;;;;;;4.23;3.03;;;;;;;1.13;100.00;97885.47;10335672;28;20721;-65
2022/01/23 03:07:47;;;;;;;3.40;2.67;;;;;;;1.02;100.00;97885.94;10336175;28;20753;-65
2022/01/23 03:13:27;;;;;;;6.33;3.63;;;;;;;1.04;100.00;97879.00;10334838;28;20246;-65
2022/01/23 03:34:06;;;;;;;5.67;4.30;;;;;;;1.11;100.00;97887.28;10334964;28;20286;-64
2022/01/23 03:39:07;;;;;;;4.93;3.53;;;;;;;0.98;100.00;97881.84;10335247;28;20221;-65
2022/01/23 03:44:09;;;;;;;4.03;2.80;;;;;;;0.86;100.00;97896.13;10334991;28;20299;-65
2022/01/23 03:54:30;;;;;;;4.67;3.10;;;;;;;0.86;100.00;97896.13;10333503;28;20216;-64
2022/01/23 03:59:31;;;;;;;6.53;4.30;;;;;;;0.96;100.00;97909.44;10332944;28;20233;-64
2022/01/23 04:04:39;;;;;;;8.83;4.73;;;;;;;0.96;100.00;97909.44;10332234;28;20307;-64
2022/01/23 04:09:41;;;;;;;8.77;6.00;;;;;;;0.99;100.00;97919.63;10332887;28;20531;-64
2022/01/23 04:14:49;;;;;;;10.03;6.17;;;;;;;0.95;100.00;97918.09;10333706;28;20778;-66
2022/01/23 04:20:20;;;;;;;10.53;6.00;;;;;;;0.97;100.00;97913.72;10332344;28;20226;-65
2022/01/23 05:03:27;;;;;;;6.53;4.40;;;;;;;0.99;100.00;97919.63;10329952;28;20213;-65
2022/01/23 05:08:29;;;;;;;7.40;4.60;;;;;;;1.01;100.00;97920.41;10332149;28;20280;-65
2022/01/23 05:13:48;;;;;;;6.97;4.43;;;;;;;1.04;100.00;97932.31;10330341;28;20272;-65
2022/01/23 05:18:49;;;;;;;8.13;4.87;;;;;;;0.98;100.00;97930.00;10314095;28;20715;-65
2022/01/23 05:23:50;;;;;;;8.20;4.80;;;;;;;0.97;100.00;97942.09;10330205;28;20209;-65
2022/01/23 05:28:50;;;;;;;8.03;4.37;;;;;;;1.04;100.00;97953.81;10331028;28;20192;-65
2022/01/23 05:33:50;;;;;;;7.23;4.50;;;;;;;0.99;100.00;97955.75;10330962;28;20216;-65
2022/01/23 05:38:51;;;;;;;8.67;5.23;;;;;;;0.99;100.00;97971.22;10329685;28;20224;-64
2022/01/23 05:43:51;;;;;;;7.73;4.70;;;;;;;1.04;100.00;97963.28;10330512;28;20233;-65
2022/01/23 05:48:52;;;;;;;6.20;3.87;;;;;;;0.96;100.00;97971.38;10329489;28;20190;-65
2022/01/23 05:54:11;;;;;;;6.13;4.20;;;;;;;0.86;100.00;97981.25;10330268;28;20272;-65
2022/01/23 05:59:46;;;;;;;5.23;3.77;;;;;;;0.84;100.00;97982.19;10328851;28;20232;-64
2022/01/23 06:04:47;;;;;;;5.60;4.07;;;;;;;0.79;100.00;97987.56;10328555;28;20639;-65
2022/01/23 06:10:15;;;;;;;9.57;5.17;;;;;;;0.73;100.00;97992.97;10329591;28;20243;-65
2022/01/23 06:15:16;;;;;;;8.77;4.73;;;;;;;0.88;100.00;97997.50;10329712;28;20237;-65
2022/01/23 06:20:16;;;;;;;7.37;4.93;;;;;;;0.80;100.00;97996.97;10328471;28;20216;-65
2022/01/23 06:25:37;;;;;;;10.50;5.77;;;;;;;0.82;100.00;98005.47;10329771;28;20209;-65
2022/01/23 06:30:41;;;;;;;11.83;6.77;;;;;;;0.86;100.00;98007.03;10328251;28;20196;-64
2022/01/23 06:35:42;;;;;;;13.67;7.73;;;;;;;0.91;100.00;98004.28;10327482;28;20231;-65
2022/01/23 06:40:42;;;;;;;10.87;7.00;;;;;;;0.96;100.00;98001.50;10324090;28;20707;-64
2022/01/23 06:45:49;;;;;;;11.73;6.67;;;;;;;0.81;100.00;98000.38;10325839;28;20229;-64
2022/01/23 06:50:50;;;;;;;13.80;7.10;;;;;;;0.83;100.00;98006.34;10339208;28;20342;-63
2022/01/23 06:55:50;;;;;;;14.20;6.13;;;;;;;0.77;100.00;98010.00;10326106;28;20221;-63
2022/01/23 07:00:51;;;;;;;11.47;6.40;;;;;;;0.69;100.00;98022.38;10327669;28;20197;-65
2022/01/23 07:05:51;;;;;;;10.67;6.13;;;;;;;0.68;100.00;98018.94;10328285;28;20287;-65
2022/01/23 07:10:58;;;;;;;10.10;5.77;;;;;;;0.83;100.00;98030.38;10330810;28;20301;-65
2022/01/23 07:16:09;;;;;;;10.63;6.33;;;;;;;0.98;100.00;98038.38;10369980;28;20584;-65
2022/01/23 07:21:28;;;;;;;11.07;6.87;;;;;;;0.87;100.00;98039.69;10361828;28;20683;-61
2022/01/23 07:26:30;;;;;;;11.90;7.73;;;;;;;0.84;100.00;98039.81;10332010;28;20190;-62
2022/01/23 07:36:35;;;;;;;8.63;5.93;;;;;;;1.00;100.00;98046.91;10334149;28;20220;-63
2022/01/23 07:41:40;;;;;;;11.40;6.77;;;;;;;0.95;100.00;98048.81;10333835;28;20217;-63
2022/01/23 07:46:55;;;;;;;11.80;7.00;;;;;;;0.89;100.00;98057.69;10333766;28;20281;-63
2022/01/23 07:52:19;;;;;;;10.37;6.03;;;;;;;0.97;100.00;98060.78;10334413;28;20300;-66
2022/01/23 07:57:28;;;;;;;10.93;7.03;;;;;;;1.04;100.00;98069.09;10333461;28;20214;-66
2022/01/23 08:02:51;;;;;;;10.43;6.93;;;;;;;1.10;100.00;98078.31;10334278;28;20232;-63
2022/01/23 08:08:23;;;;;;;12.30;7.70;;;;;;;1.11;100.00;98080.84;10332751;28;20186;-65
2022/01/23 08:13:30;;;;;;;11.53;6.73;;;;;;;1.09;100.00;98077.50;10332450;28;20580;-65
2022/01/23 08:18:31;;;;;;;7.47;5.13;;;;;;;0.90;100.00;98090.28;10333948;28;20225;-66
2022/01/23 08:23:31;;;;;;;5.80;3.97;;;;;;;0.91;100.00;98091.16;10331688;28;20213;-66
2022/01/23 08:28:32;;;;;;;5.80;4.17;;;;;;;1.05;100.00;98089.66;10333700;28;20559;-66
2022/01/23 08:33:32;;;;;;;6.43;4.10;;;;;;;1.23;100.00;98087.25;10332945;28;20237;-66
2022/01/23 08:38:34;;;;;;;5.73;4.10;;;;;;;1.40;100.00;98089.94;10333081;28;20287;-65
2022/01/23 08:43:34;;;;;;;6.30;3.93;;;;;;;1.16;100.00;98081.47;10332770;28;20236;-65
2022/01/23 08:48:34;;;;;;;7.33;4.13;;;;;;;1.11;100.00;98091.16;10332619;28;20182;-65
2022/01/23 08:53:35;;;;;;;6.77;5.00;;;;;;;1.42;100.00;98083.00;10332398;28;20739;-65
2022/01/23 08:58:35;;;;;;;7.80;5.20;;;;;;;1.39;100.00;98088.28;10332072;28;20703;-64
2022/01/23 09:03:35;;;;;;;8.73;6.30;;;;;;;1.52;100.00;98100.66;10332073;28;20293;-64
2022/01/23 09:08:38;;;;;;;16.47;7.77;;;;;;;1.57;100.00;98093.56;10329856;28;20205;-64
2022/01/23 09:13:54;;;;;;;14.27;7.27;;;;;;;1.57;100.00;98090.97;10331385;28;20249;-64
2022/01/23 09:18:55;;;;;;;9.33;7.03;;;;;;;1.58;100.00;98095.25;10331372;28;20213;-64
2022/01/23 09:23:55;;;;;;;7.03;5.27;;;;;;;1.73;100.00;98096.28;10330657;28;20719;-64
2022/01/23 09:28:59;;;;;;;9.80;6.83;;;;;;;2.04;100.00;98095.78;10331275;28;20205;-64
2022/01/23 09:33:59;;;;;;;7.30;5.80;;;;;;;2.63;100.00;98095.69;10330454;28;20284;-64
2022/01/23 09:38:59;;;;;;;6.07;5.47;;;;;;;2.44;100.00;98099.13;10330697;28;20308;-65
2022/01/23 09:44:00;;;;;;;7.17;5.37;;;;;;;2.27;100.00;98112.00;10329617;28;20236;-64
2022/01/23 09:49:01;;;;;;;9.07;6.63;;;;;;;2.25;100.00;98119.84;10329267;28;20189;-64
2022/01/23 09:54:01;;;;;;;6.00;4.37;;;;;;;2.24;100.00;98131.06;10329055;28;20233;-64
2022/01/23 09:59:02;;;;;;;7.17;4.80;;;;;;;2.18;100.00;98138.28;10330077;28;20225;-64
2022/01/23 10:04:02;;;;;;;5.37;4.87;;;;;;;2.05;100.00;98131.06;10330008;28;20213;-64
2022/01/23 10:09:06;;;;;;;5.13;4.37;;;;;;;2.25;100.00;98137.94;10329929;28;20217;-63
2022/01/23 10:14:07;;;;;;;6.30;4.70;;;;;;;3.36;100.00;98124.91;10329427;28;20242;-63
2022/01/23 10:19:08;;;;;;;5.03;4.30;;;;;;;3.69;100.00;98120.69;10329692;28;20623;-63
2022/01/23 10:24:10;;;;;;;6.67;4.70;;;;;;;4.08;100.00;98106.59;10327838;28;20214;-64
2022/01/23 10:29:19;;;;;;;4.87;4.37;;;;;;;4.06;100.00;98100.66;10329566;28;20267;-64
2022/01/23 10:34:43;;;;;;;4.73;4.27;;;;;;;3.72;100.00;98102.41;10329084;28;20683;-64
2022/01/23 10:39:46;;;;;;;5.93;4.50;;;;;;;3.65;100.00;98098.47;10329308;28;20233;-64
2022/01/23 10:50:08;;;;;;;6.47;5.07;;;;;;;3.03;100.00;98106.69;10336230;28;20193;-63
2022/01/23 10:55:11;;;;;;;4.63;4.13;;;;;;;3.19;100.00;98097.28;10336700;28;20218;-65
2022/01/23 11:00:39;;;;;;;4.73;4.17;;;;;;;3.34;100.00;98105.22;10336807;28;20221;-64
2022/01/23 11:05:40;;;;;;;5.27;4.40;;;;;;;2.85;100.00;98108.44;10336440;28;20328;-63
2022/01/23 11:10:54;;;;;;;4.47;3.63;;;;;;;3.01;100.00;98101.59;10336428;28;20190;-63
2022/01/23 11:21:20;;;;;;;9.63;7.53;;;;;;;3.19;100.00;98086.91;10376629;28;20225;-67
2022/01/23 11:26:20;;;;;;;13.40;8.17;;;;;;;3.45;100.00;98094.31;10375891;28;20581;-67
2022/01/23 11:31:22;;;;;;;9.27;7.57;;;;;;;3.60;100.00;98090.06;10375182;28;20200;-67
2022/01/23 11:36:23;;;;;;;10.07;8.27;;;;;;;3.92;100.00;98084.06;10375664;28;20703;-67
2022/01/23 11:57:33;;;;;;;4.53;4.13;;;;;;;3.90;100.00;98077.28;10374786;28;20217;-67
2022/01/23 12:02:44;;;;;;;4.40;4.00;;;;;;;3.51;100.00;98076.69;10375485;28;20193;-67
2022/01/23 12:08:07;;;;;;;4.20;3.80;;;;;;;3.31;100.00;98085.47;10375846;28;20215;-67
2022/01/23 12:13:32;;;;;;;5.17;3.50;;;;;;;3.20;100.00;98078.25;10374778;28;20194;-67
2022/01/23 12:18:33;;;;;;;3.87;3.53;;;;;;;2.89;100.00;98072.91;10374017;28;20316;-68
2022/01/23 12:24:02;;;;;;;4.57;3.70;;;;;;;2.89;100.00;98075.47;10374019;28;20192;-68
2022/01/23 12:29:14;;;;;;;4.00;3.60;;;;;;;2.79;100.00;98067.34;10373902;28;20215;-67
2022/01/23 12:34:14;;;;;;;4.03;3.37;;;;;;;2.79;100.00;98052.63;10373867;28;20579;-68
2022/01/23 12:39:18;;;;;;;3.47;3.17;;;;;;;2.73;100.00;98055.53;10373511;28;20240;-68
2022/01/23 12:44:26;;;;;;;3.13;2.83;;;;;;;2.80;100.00;98058.66;10373572;28;20193;-66
2022/01/23 12:49:38;;;;;;;3.90;3.50;;;;;;;2.90;100.00;98059.88;10373665;28;20209;-67
2022/01/23 12:54:59;;;;;;;2.60;2.40;;;;;;;2.92;100.00;98047.69;10371855;28;20200;-67
2022/01/23 13:00:03;;;;;;;2.20;1.93;;;;;;;2.80;100.00;98046.56;10372455;28;20255;-66
2022/01/23 13:05:03;;;;;;;1.97;1.77;;;;;;;2.91;100.00;98050.34;10372995;28;20185;-67
2022/01/23 13:10:12;;;;;;;3.50;2.70;;;;;;;2.79;100.00;98051.81;10371922;28;20209;-67
2022/01/23 13:15:23;;;;;;;8.20;4.20;;;;;;;2.65;100.00;98049.91;10372052;28;20541;-67
2022/01/23 13:31:09;;;;;;;3.97;3.67;;;;;;;2.65;100.00;98060.25;10371710;28;20189;-68
2022/01/23 13:36:11;;;;;;;3.70;2.97;;;;;;;2.49;100.00;98060.13;10371519;28;20263;-68
2022/01/23 13:41:23;;;;;;;2.30;2.03;;;;;;;2.50;100.00;98072.16;10371588;28;20707;-66
2022/01/23 13:52:36;;;;;;;2.47;2.27;;;;;;;2.38;100.00;98083.91;10371761;28;20201;-67
2022/01/23 14:02:34;;;;;;;3.43;2.70;;;;;;;2.26;100.00;98074.94;10370789;28;20193;-68
2022/01/23 14:07:35;;;;;;;2.77;2.47;;;;;;;2.31;100.00;98078.19;10371030;28;20299;-68
2022/01/23 14:12:36;;;;;;;3.70;3.30;;;;;;;2.30;100.00;98086.84;10370526;28;20715;-68
2022/01/23 14:17:39;;;;;;;2.50;2.30;;;;;;;2.32;100.00;98079.84;10370459;28;20233;-67
2022/01/23 14:22:42;;;;;;;2.63;2.30;;;;;;;2.33;100.00;98072.94;10378554;28;20220;-67
2022/01/23 14:27:48;;;;;;;3.73;2.67;;;;;;;2.27;100.00;98080.97;10378451;28;20209;-67
2022/01/23 14:32:52;;;;;;;3.03;2.73;;;;;;;2.05;100.00;98086.28;10378764;28;20197;-67
2022/01/23 14:37:53;;;;;;;2.43;2.23;;;;;;;2.01;100.00;98085.59;10378199;28;20228;-68
2022/01/23 14:43:07;;;;;;;2.50;2.30;;;;;;;1.93;100.00;98098.84;10378164;28;20223;-68
2022/01/23 14:48:09;;;;;;;2.90;2.57;;;;;;;1.91;100.00;98107.56;10377734;28;20213;-68
2022/01/23 14:53:12;;;;;;;4.43;2.90;;;;;;;1.96;100.00;98098.72;10377895;28;20272;-68
2022/01/23 14:58:17;;;;;;;3.00;2.63;;;;;;;1.87;100.00;98100.84;10377452;28;20264;-68
2022/01/23 15:03:18;;;;;;;3.70;2.93;;;;;;;1.76;100.00;98102.19;10377164;28;20201;-67
2022/01/23 15:08:24;;;;;;;2.70;2.40;;;;;;;1.72;100.00;98107.56;10377462;28;20626;-68
2022/01/23 15:13:26;;;;;;;4.40;2.53;;;;;;;1.69;100.00;98115.44;10376740;28;20189;-68
2022/01/23 15:18:27;;;;;;;5.67;3.13;;;;;;;1.78;100.00;98121.03;10375504;28;20324;-67
2022/01/23 15:23:27;;;;;;;6.67;4.23;;;;;;;1.82;100.00;98134.66;10376246;28;20200;-68
2022/01/23 15:28:27;;;;;;;5.83;4.10;;;;;;;1.73;100.00;98140.22;10376141;28;20213;-68
2022/01/23 15:33:28;;;;;;;4.37;3.03;;;;;;;1.64;100.00;98145.78;10375862;28;20201;-67
2022/01/23 15:38:29;;;;;;;5.50;3.90;;;;;;;1.59;100.00;98144.25;10375842;28;20252;-68
2022/01/23 15:43:32;;;;;;;4.40;4.00;;;;;;;1.58;100.00;98145.13;10376366;28;20204;-68
2022/01/23 15:48:33;;;;;;;3.70;3.30;;;;;;;1.65;100.00;98148.28;10375583;28;20616;-67
2022/01/23 15:53:33;;;;;;;4.23;3.43;;;;;;;1.56;100.00;98153.84;10375419;28;20193;-68
2022/01/23 15:58:33;;;;;;;5.33;3.63;;;;;;;1.72;100.00;98151.47;10375415;28;20221;-68
2022/01/23 16:03:34;;;;;;;6.13;4.33;;;;;;;1.61;100.00;98159.69;10374746;28;20570;-67
2022/01/23 16:08:38;;;;;;;5.87;4.20;;;;;;;1.58;100.00;98159.81;10374142;28;20703;-69
2022/01/23 16:13:38;;;;;;;6.50;4.57;;;;;;;1.55;100.00;98150.44;10374107;28;20225;-68
2022/01/23 16:18:38;;;;;;;8.70;7.80;;;;;;;1.60;100.00;98158.00;10373991;28;20228;-67
2022/01/23 16:23:39;;;;;;;6.20;4.87;;;;;;;1.57;100.00;98158.13;10374533;28;20651;-69
2022/01/23 16:28:39;;;;;;;9.37;5.40;;;;;;;1.52;100.00;98142.81;10373741;28;20213;-68
2022/01/23 16:33:40;;;;;;;7.10;4.90;;;;;;;1.63;100.00;98139.78;10374105;28;20220;-68
2022/01/23 16:38:40;;;;;;;6.63;4.83;;;;;;;1.72;100.00;98131.63;10373330;28;20225;-64
2022/01/23 16:43:41;;;;;;;8.73;7.13;;;;;;;1.58;100.00;98126.22;10370727;28;20639;-65
2022/01/23 16:48:41;;;;;;;10.53;8.50;;;;;;;1.59;100.00;98133.06;10368205;28;21038;-66
2022/01/23 16:53:42;;;;;;;5.60;4.60;;;;;;;1.56;100.00;98133.19;10367917;28;20666;-66
2022/01/23 16:58:42;;;;;;;6.00;4.33;;;;;;;1.57;100.00;98134.88;10368975;28;20225;-66
2022/01/23 17:03:42;;;;;;;7.43;5.00;;;;;;;1.54;100.00;98141.00;10370573;28;20192;-67
2022/01/23 17:08:43;;;;;;;6.17;4.93;;;;;;;1.50;100.00;98136.88;10372859;28;20212;-68
2022/01/23 17:13:44;;;;;;;9.90;5.57;;;;;;;1.57;100.00;98146.03;10372118;28;20683;-66
2022/01/23 17:18:44;;;;;;;8.37;5.57;;;;;;;1.51;100.00;98143.72;10395679;22;20368;-67
2022/01/23 17:23:45;;;;;;;10.70;6.80;;;;;;;1.63;100.00;98133.78;10371996;28;20201;-66
2022/01/23 17:28:45;;;;;;;7.27;5.50;;;;;;;1.65;100.00;98145.72;10371445;28;20271;-66
2022/01/23 17:33:46;;;;;;;10.43;5.67;;;;;;;1.59;100.00;98143.38;10371822;28;20185;-66
2022/01/23 17:38:46;;;;;;;7.03;5.13;;;;;;;1.68;100.00;98143.00;10371106;28;20690;-66
2022/01/23 17:43:48;;;;;;;17.57;10.30;;;;;;;1.56;100.00;98146.09;10371293;28;20617;-67
2022/01/23 17:49:01;;;;;;;10.90;7.53;;;;;;;1.53;100.00;98161.72;10371031;28;20630;-64
2022/01/23 17:54:03;;;;;;;10.00;6.20;;;;;;;1.54;100.00;98153.91;10370420;28;20196;-66
2022/01/23 17:59:04;;;;;;;14.53;8.77;;;;;;;1.48;100.00;98154.16;10365053;28;20307;-65
2022/01/23 18:04:04;;;;;;;11.30;6.20;;;;;;;1.49;100.00;98157.63;10370318;28;20675;-64
2022/01/23 18:09:09;;;;;;;10.80;6.43;;;;;;;1.39;100.00;98163.16;10370446;28;20299;-64
2022/01/23 18:14:12;;;;;;;8.50;5.47;;;;;;;1.34;100.00;98166.81;10369270;28;20224;-64
2022/01/23 18:19:12;;;;;;;12.53;5.77;;;;;;;1.31;100.00;98170.38;10370011;28;20240;-64
2022/01/23 18:24:13;;;;;;;8.77;6.17;;;;;;;1.38;100.00;98170.97;10369879;28;20205;-65
2022/01/23 18:29:13;;;;;;;10.63;6.57;;;;;;;1.48;100.00;98168.84;10367887;28;20217;-65
2022/01/23 18:34:14;;;;;;;14.07;6.67;;;;;;;1.43;100.00;98169.03;10364058;28;20189;-65
2022/01/23 18:39:14;;;;;;;12.43;7.17;;;;;;;1.31;100.00;98167.78;10372194;28;20225;-65
2022/01/23 18:44:16;;;;;;;11.00;6.97;;;;;;;1.53;100.00;98166.88;10367106;28;21639;-65
2022/01/23 18:49:16;;;;;;;9.80;7.10;;;;;;;1.38;100.00;98161.47;10367935;28;20213;-66
2022/01/23 18:54:26;;;;;;;9.63;6.57;;;;;;;1.33;100.00;98171.16;10368846;28;20228;-65
2022/01/23 18:59:28;;;;;;;9.77;6.50;;;;;;;1.35;100.00;98165.94;10367288;28;20304;-65
2022/01/23 19:04:38;;;;;;;12.70;6.33;;;;;;;1.51;100.00;98179.03;10364555;28;20190;-66
2022/01/23 19:09:41;;;;;;;8.27;5.47;;;;;;;1.51;100.00;98191.94;10376548;28;20209;-65
2022/01/23 19:14:42;;;;;;;9.90;6.00;;;;;;;1.55;100.00;98185.75;10376202;28;20215;-65
2022/01/23 19:19:42;;;;;;;8.47;5.43;;;;;;;1.69;100.00;98182.59;10376553;28;20232;-65
2022/01/23 19:24:43;;;;;;;8.77;5.77;;;;;;;1.68;100.00;98194.66;10376460;28;20193;-65
2022/01/23 19:29:44;;;;;;;8.63;5.93;;;;;;;1.88;100.00;98186.06;10376094;28;20209;-65
2022/01/23 19:34:44;;;;;;;8.37;5.80;;;;;;;1.85;100.00;98193.13;10375065;28;20284;-66
2022/01/23 19:39:49;;;;;;;7.60;5.30;;;;;;;1.67;100.00;98192.13;10374942;28;20217;-65
2022/01/23 19:44:56;;;;;;;9.53;5.00;;;;;;;1.52;100.00;98191.88;10374036;28;20578;-66
2022/01/23 19:49:58;;;;;;;8.07;5.33;;;;;;;1.48;100.00;98194.66;10375516;28;20213;-66
2022/01/23 19:54:58;;;;;;;9.30;5.03;;;;;;;1.91;100.00;98191.09;10374641;28;20691;-66
2022/01/23 20:00:00;;;;;;;17.40;5.50;;;;;;;1.77;100.00;98196.03;10373399;28;20225;-66
2022/01/23 20:05:01;;;;;;;6.30;3.90;;;;;;;1.37;100.00;98190.75;10369067;28;20216;-66
2022/01/23 20:10:22;;;;;;;9.27;5.57;;;;;;;1.44;100.00;98188.78;10372440;28;20574;-66
2022/01/23 20:15:24;;;;;;;11.67;6.13;;;;;;;1.53;100.00;98197.88;10368774;28;20197;-65
2022/01/23 20:20:25;;;;;;;13.37;7.00;;;;;;;1.47;100.00;98200.72;10371898;28;20245;-65
2022/01/23 20:25:25;;;;;;;11.30;6.10;;;;;;;1.76;100.00;98184.84;10373479;28;20193;-66
2022/01/23 20:30:26;;;;;;;12.93;7.70;;;;;;;1.68;100.00;98181.75;10372783;28;20211;-66
2022/01/23 20:35:26;;;;;;;12.20;7.20;;;;;;;1.65;100.00;98179.28;10373645;28;20197;-66
2022/01/23 20:40:40;;;;;;;13.73;7.07;;;;;;;1.72;100.00;98183.31;10373352;28;20217;-66
2022/01/23 20:45:40;;;;;;;14.33;6.93;;;;;;;1.70;100.00;98194.59;10371623;28;20192;-66
2022/01/23 20:50:50;;;;;;;12.03;6.83;;;;;;;1.59;100.00;98188.16;10373044;28;20881;-66
2022/01/23 20:55:50;;;;;;;10.93;7.03;;;;;;;1.84;100.00;98187.13;10368552;28;20201;-67
2022/01/23 21:00:50;;;;;;;10.23;6.27;;;;;;;1.63;100.00;98186.28;10369531;28;20181;-66
2022/01/23 21:05:51;;;;;;;8.77;5.83;;;;;;;1.57;100.00;98184.78;10372787;28;20581;-67
2022/01/23 21:10:54;;;;;;;10.13;6.00;;;;;;;1.53;100.00;98197.88;10372822;28;20185;-67
2022/01/23 21:16:25;;;;;;;15.23;7.53;;;;;;;1.50;100.00;98192.84;10371541;28;20229;-67
2022/01/23 21:21:34;;;;;;;13.10;7.03;;;;;;;1.51;100.00;98203.09;10372324;28;20205;-67
2022/01/23 21:32:40;;;;;;;14.57;7.43;;;;;;;1.58;100.00;98216.63;10370813;28;20201;-67
2022/01/23 21:42:42;;;;;;;13.73;7.37;;;;;;;1.56;100.00;98216.69;10370991;28;20613;-66
2022/01/23 21:47:42;;;;;;;16.60;7.50;;;;;;;1.57;100.00;98215.78;10371182;28;20209;-67
2022/01/23 21:52:43;;;;;;;15.23;7.30;;;;;;;1.64;100.00;98218.97;10371013;28;20217;-66
2022/01/23 21:57:43;;;;;;;13.47;6.57;;;;;;;1.70;100.00;98223.00;10370709;28;20228;-67
2022/01/23 22:02:44;;;;;;;14.17;7.10;;;;;;;1.77;100.00;98221.84;10370959;28;20201;-66
2022/01/23 22:07:44;;;;;;;13.57;6.73;;;;;;;1.75;100.00;98223.69;10370392;28;20216;-67
2022/01/23 22:13:09;;;;;;;13.60;6.57;;;;;;;1.69;100.00;98219.59;10370751;28;20225;-66
2022/01/23 22:18:04;;;;;;;13.53;7.60;;;;;;;1.66;100.00;98224.06;10369545;28;20240;-66
2022/01/23 22:28:08;;;;;;;15.30;7.47;;;;;;;1.86;100.00;98218.88;10370208;28;20228;-66
2022/01/23 22:33:08;;;;;;;13.43;7.83;;;;;;;1.80;100.00;98226.06;10370327;28;20215;-66
2022/01/23 22:38:09;;;;;;;12.33;7.37;;;;;;;2.01;100.00;98224.31;10370048;28;20234;-66
2022/01/23 22:43:09;;;;;;;15.37;7.03;;;;;;;1.80;100.00;98226.06;10375933;28;20193;-66
2022/01/23 22:48:10;;;;;;;11.30;6.20;;;;;;;1.75;100.00;98211.59;10378125;28;20343;-66
2022/01/23 22:53:10;;;;;;;11.93;6.73;;;;;;;1.59;100.00;98218.28;10377897;28;20181;-66
2022/01/23 22:58:10;;;;;;;12.60;6.27;;;;;;;1.54;100.00;98220.22;10377644;28;20236;-66
2022/01/23 23:03:13;;;;;;;12.23;6.30;;;;;;;1.80;100.00;98226.06;10377404;28;20196;-66
2022/01/23 23:08:14;;;;;;;10.90;6.63;;;;;;;1.37;100.00;98226.91;10377128;28;20286;-66
2022/01/23 23:13:19;;;;;;;11.57;5.77;;;;;;;1.47;100.00;98226.53;10376927;28;20217;-66
2022/01/23 23:18:30;;;;;;;10.03;6.10;;;;;;;1.63;100.00;98219.84;10410040;22;20240;-68
2022/01/23 23:23:32;;;;;;;8.50;5.30;;;;;;;1.63;100.00;98224.19;10417592;28;20220;-68
2022/01/23 23:28:33;;;;;;;9.13;5.53;;;;;;;1.43;100.00;98218.91;10417511;28;20214;-68
2022/01/23 23:33:34;;;;;;;13.43;6.67;;;;;;;1.31;100.00;98219.41;10417370;28;20200;-68
2022/01/23 23:38:35;;;;;;;10.27;5.63;;;;;;;1.39;100.00;98217.38;10416870;28;20666;-67
2022/01/23 23:43:52;;;;;;;12.67;6.43;;;;;;;1.16;100.00;98225.19;10416903;28;20278;-68
2022/01/23 23:48:57;;;;;;;12.77;6.47;;;;;;;1.19;100.00;98227.66;10416444;28;20200;-68
2022/01/23 23:53:58;;;;;;;11.50;6.40;;;;;;;1.51;100.00;98220.34;10416213;28;20188;-68
2022/01/23 23:58:59;;;;;;;9.40;5.70;;;;;;;1.71;100.00;98214.38;10416050;28;20227;-68
